Time;durP1;ratioP1;P1;durP2;ratioP2;P2;SDS_P1;SDS_P2;PMS_P1;PMS_P2;Temp;Humidity;BMP_temperature;BMP_pressure;BME280_temperature;BME280_humidity;BME280_pressure;Samples;Min_cycle;Max_cycle;Signal;HPM_P1;HPM_P2
2023/03/11 00:01:29;;;;;;;0.20;0.20;;;;;;;;;;4993224;28;20267;-67
2023/03/11 00:03:56;;;;;;;0.20;0.20;;;;;;;;;;5003036;28;20207;-68
2023/03/11 00:06:22;;;;;;;0.20;0.20;;;;;;;;;;4993201;28;20441;-67
2023/03/11 00:08:51;;;;;;;0.20;0.20;;;;;;;;;;5003127;28;20278;-67
2023/03/11 00:11:18;;;;;;;0.20;0.20;;;;;;;;;;4993336;28;20290;-68
2023/03/11 00:13:46;;;;;;;0.20;0.20;;;;;;;;;;5003262;28;20404;-67
2023/03/11 00:16:12;;;;;;;0.20;0.20;;;;;;;;;;4993221;28;20285;-67
2023/03/11 00:18:39;;;;;;;0.20;0.20;;;;;;;;;;5003256;28;20245;-67
2023/03/11 00:21:05;;;;;;;0.20;0.20;;;;;;;;;;4993279;28;20305;-67
2023/03/11 00:23:33;;;;;;;0.30;0.30;;;;;;;;;;5003171;28;20529;-67
2023/03/11 00:26:01;;;;;;;0.20;0.20;;;;;;;;;;4994981;28;20246;-67
2023/03/11 00:28:28;;;;;;;0.30;0.30;;;;;;;;;;5006348;28;20207;-67
2023/03/11 00:30:56;;;;;;;0.20;0.20;;;;;;;;;;4996734;28;20306;-68
2023/03/11 00:33:22;;;;;;;0.30;0.30;;;;;;;;;;5006517;28;20206;-67
2023/03/11 00:35:49;;;;;;;0.30;0.30;;;;;;;;;;4996714;28;20306;-67
2023/03/11 00:38:16;;;;;;;0.30;0.30;;;;;;;;;;5006017;28;20238;-67
2023/03/11 00:40:43;;;;;;;0.30;0.30;;;;;;;;;;4996693;28;20242;-67
2023/03/11 00:43:10;;;;;;;0.20;0.20;;;;;;;;;;5005951;28;20267;-67
2023/03/11 00:45:36;;;;;;;0.30;0.30;;;;;;;;;;4996674;28;20580;-67
2023/03/11 00:48:05;;;;;;;0.23;0.23;;;;;;;;;;5006334;28;20198;-69
2023/03/11 00:50:32;;;;;;;0.20;0.20;;;;;;;;;;4996634;28;20242;-69
2023/03/11 00:52:59;;;;;;;0.20;0.20;;;;;;;;;;5005918;28;20283;-69
2023/03/11 00:55:26;;;;;;;0.23;0.23;;;;;;;;;;4996256;28;20238;-68
2023/03/11 00:57:53;;;;;;;0.23;0.23;;;;;;;;;;5005469;28;20221;-68
2023/03/11 01:00:21;;;;;;;0.30;0.30;;;;;;;;;;4996661;28;20206;-69
2023/03/11 01:02:48;;;;;;;0.30;0.30;;;;;;;;;;5005369;28;20196;-68
2023/03/11 01:05:15;;;;;;;0.20;0.20;;;;;;;;;;4996115;28;20274;-69
2023/03/11 01:07:42;;;;;;;0.23;0.23;;;;;;;;;;5005502;28;20448;-68
2023/03/11 01:10:09;;;;;;;0.30;0.30;;;;;;;;;;4996620;28;20217;-69
2023/03/11 01:12:35;;;;;;;0.20;0.20;;;;;;;;;;5005340;28;20206;-68
2023/03/11 01:15:02;;;;;;;0.30;0.30;;;;;;;;;;5006138;28;20217;-68
2023/03/11 01:17:28;;;;;;;0.20;0.20;;;;;;;;;;4995214;28;20310;-68
2023/03/11 01:19:55;;;;;;;0.60;0.60;;;;;;;;;;5006125;28;20513;-69
2023/03/11 01:22:23;;;;;;;0.20;0.20;;;;;;;;;;4995016;28;20246;-70
2023/03/11 01:24:49;;;;;;;0.20;0.20;;;;;;;;;;5005995;28;20244;-68
2023/03/11 01:27:15;;;;;;;0.30;0.30;;;;;;;;;;4994967;28;20244;-69
2023/03/11 01:29:42;;;;;;;0.30;0.30;;;;;;;;;;5005713;28;20208;-68
2023/03/11 01:32:08;;;;;;;0.30;0.30;;;;;;;;;;4994974;28;20260;-68
2023/03/11 01:34:35;;;;;;;0.43;0.43;;;;;;;;;;5005976;28;20273;-68
2023/03/11 01:37:01;;;;;;;0.20;0.20;;;;;;;;;;4994000;28;20296;-68
2023/03/11 01:39:29;;;;;;;0.30;0.30;;;;;;;;;;5005650;28;20283;-68
2023/03/11 01:41:56;;;;;;;0.30;0.30;;;;;;;;;;4994726;28;20308;-68
2023/03/11 01:44:22;;;;;;;0.30;0.30;;;;;;;;;;5005698;28;20206;-68
2023/03/11 01:47:03;;;;;;;0.30;0.30;;;;;;;;;;4994671;28;20249;-68
2023/03/11 01:49:30;;;;;;;0.30;0.30;;;;;;;;;;5004832;28;20442;-68
2023/03/11 01:51:57;;;;;;;0.20;0.20;;;;;;;;;;4994621;28;20244;-68
2023/03/11 01:54:25;;;;;;;0.20;0.20;;;;;;;;;;5005110;28;20461;-69
2023/03/11 01:56:54;;;;;;;0.20;0.20;;;;;;;;;;4994242;28;20243;-68
2023/03/11 01:59:22;;;;;;;0.30;0.30;;;;;;;;;;5005367;28;20242;-68
2023/03/11 02:01:52;;;;;;;0.30;0.30;;;;;;;;;;4994525;28;20252;-68
2023/03/11 02:04:19;;;;;;;0.30;0.30;;;;;;;;;;5005082;28;20239;-68
2023/03/11 02:06:45;;;;;;;0.20;0.20;;;;;;;;;;4994603;28;20308;-68
2023/03/11 02:09:11;;;;;;;0.20;0.20;;;;;;;;;;5004884;28;20273;-68
2023/03/11 02:11:38;;;;;;;0.20;0.20;;;;;;;;;;4994527;28;20264;-68
2023/03/11 02:14:07;;;;;;;0.30;0.30;;;;;;;;;;5004951;28;20246;-68
2023/03/11 02:16:33;;;;;;;0.30;0.30;;;;;;;;;;4994300;28;20268;-68
2023/03/11 02:19:03;;;;;;;0.30;0.30;;;;;;;;;;5004452;28;20206;-68
2023/03/11 02:21:31;;;;;;;0.30;0.30;;;;;;;;;;4994501;28;20260;-68
2023/03/11 02:24:02;;;;;;;0.30;0.30;;;;;;;;;;5004375;28;20205;-67
2023/03/11 02:26:32;;;;;;;0.30;0.30;;;;;;;;;;4994115;28;20301;-68
2023/03/11 02:29:00;;;;;;;0.50;0.50;;;;;;;;;;5004581;28;20401;-68
2023/03/11 02:31:27;;;;;;;0.70;0.70;;;;;;;;;;4994118;28;20242;-68
2023/03/11 02:33:54;;;;;;;0.30;0.30;;;;;;;;;;5004371;28;20281;-68
2023/03/11 02:36:30;;;;;;;0.20;0.20;;;;;;;;;;4994486;28;20280;-68
2023/03/11 02:38:56;;;;;;;0.20;0.20;;;;;;;;;;5004546;28;20268;-68
2023/03/11 02:41:23;;;;;;;0.73;0.70;;;;;;;;;;4994238;28;20244;-68
2023/03/11 02:43:50;;;;;;;0.20;0.20;;;;;;;;;;5004204;28;20237;-68
2023/03/11 02:46:18;;;;;;;0.20;0.20;;;;;;;;;;4993918;28;20336;-68
2023/03/11 02:48:45;;;;;;;0.30;0.30;;;;;;;;;;5003836;28;20343;-68
2023/03/11 02:51:11;;;;;;;0.20;0.20;;;;;;;;;;4994212;28;20256;-68
2023/03/11 02:53:41;;;;;;;0.30;0.30;;;;;;;;;;5004116;28;20276;-71
2023/03/11 02:56:07;;;;;;;0.20;0.20;;;;;;;;;;4993710;28;20264;-70
2023/03/11 02:58:34;;;;;;;0.80;0.80;;;;;;;;;;5003688;28;20270;-71
2023/03/11 03:01:00;;;;;;;0.30;0.30;;;;;;;;;;4994052;28;20253;-71
2023/03/11 03:03:28;;;;;;;0.30;0.30;;;;;;;;;;5003550;28;20237;-72
2023/03/11 03:05:54;;;;;;;0.30;0.30;;;;;;;;;;4994083;28;20313;-72
2023/03/11 03:08:21;;;;;;;0.30;0.30;;;;;;;;;;5003465;28;20214;-72
2023/03/11 03:10:47;;;;;;;0.30;0.30;;;;;;;;;;4993845;28;20483;-72
2023/03/11 03:13:13;;;;;;;0.30;0.30;;;;;;;;;;5003630;28;20202;-73
2023/03/11 03:15:40;;;;;;;0.30;0.30;;;;;;;;;;4993960;28;20265;-72
2023/03/11 03:18:06;;;;;;;0.30;0.30;;;;;;;;;;5003181;28;20206;-72
2023/03/11 03:20:34;;;;;;;0.40;0.40;;;;;;;;;;4994226;28;20317;-72
2023/03/11 03:23:00;;;;;;;0.30;0.30;;;;;;;;;;5003346;28;20297;-72
2023/03/11 03:25:27;;;;;;;0.43;0.43;;;;;;;;;;4994215;28;20295;-71
2023/03/11 03:27:53;;;;;;;0.30;0.30;;;;;;;;;;5003043;28;20278;-72
2023/03/11 03:30:19;;;;;;;0.27;0.27;;;;;;;;;;4994110;28;20272;-72
2023/03/11 03:32:46;;;;;;;1.53;1.43;;;;;;;;;;5003220;28;20226;-72
2023/03/11 03:35:12;;;;;;;0.30;0.30;;;;;;;;;;4993835;28;20213;-71
2023/03/11 03:37:40;;;;;;;0.30;0.30;;;;;;;;;;5002714;28;20226;-72
2023/03/11 03:40:07;;;;;;;0.20;0.20;;;;;;;;;;5004080;28;20609;-73
2023/03/11 03:42:34;;;;;;;0.30;0.30;;;;;;;;;;4976548;28;20400;-72
2023/03/11 03:45:00;;;;;;;0.20;0.20;;;;;;;;;;5003942;28;20212;-72
2023/03/11 03:47:27;;;;;;;0.30;0.30;;;;;;;;;;4992809;28;20254;-72
2023/03/11 03:49:53;;;;;;;0.23;0.23;;;;;;;;;;5003863;28;20214;-72
2023/03/11 03:52:20;;;;;;;0.30;0.30;;;;;;;;;;4992937;28;20258;-72
2023/03/11 03:54:47;;;;;;;0.30;0.30;;;;;;;;;;5003809;28;20238;-71
2023/03/11 03:57:14;;;;;;;0.30;0.30;;;;;;;;;;4992753;28;20300;-72
2023/03/11 03:59:40;;;;;;;0.20;0.20;;;;;;;;;;5003792;28;20233;-72
2023/03/11 04:02:06;;;;;;;0.23;0.23;;;;;;;;;;4996159;28;20266;-72
2023/03/11 04:04:33;;;;;;;0.20;0.20;;;;;;;;;;5007426;28;20273;-73
2023/03/11 04:06:59;;;;;;;0.27;0.27;;;;;;;;;;4996430;28;20302;-72
2023/03/11 04:09:25;;;;;;;0.20;0.20;;;;;;;;;;5007503;28;20504;-72
2023/03/11 04:11:53;;;;;;;0.30;0.30;;;;;;;;;;4996571;28;20241;-73
2023/03/11 04:14:19;;;;;;;0.23;0.23;;;;;;;;;;5007312;28;20277;-72
2023/03/11 04:16:46;;;;;;;0.20;0.20;;;;;;;;;;4996294;28;20324;-73
2023/03/11 04:19:12;;;;;;;0.23;0.23;;;;;;;;;;5006961;28;20209;-73
2023/03/11 04:21:39;;;;;;;0.23;0.23;;;;;;;;;;4996518;28;20524;-73
2023/03/11 04:24:05;;;;;;;0.30;0.30;;;;;;;;;;5006966;28;20374;-73
2023/03/11 04:26:32;;;;;;;0.30;0.30;;;;;;;;;;4996594;28;20277;-73
2023/03/11 04:29:00;;;;;;;0.27;0.27;;;;;;;;;;5006857;28;20278;-71
2023/03/11 04:31:26;;;;;;;0.30;0.30;;;;;;;;;;4996474;28;20250;-73
2023/03/11 04:33:53;;;;;;;0.30;0.30;;;;;;;;;;5006768;28;20261;-73
2023/03/11 04:36:20;;;;;;;0.20;0.20;;;;;;;;;;4996425;28;20305;-73
2023/03/11 04:38:46;;;;;;;0.23;0.23;;;;;;;;;;5006283;28;20208;-73
2023/03/11 04:41:12;;;;;;;0.20;0.20;;;;;;;;;;4996527;28;20799;-73
2023/03/11 04:43:39;;;;;;;0.20;0.20;;;;;;;;;;5006180;28;20208;-72
2023/03/11 04:46:06;;;;;;;0.30;0.30;;;;;;;;;;4996477;28;20566;-71
2023/03/11 04:48:33;;;;;;;0.30;0.30;;;;;;;;;;5006282;28;20278;-72
2023/03/11 04:50:59;;;;;;;0.20;0.20;;;;;;;;;;4996322;28;20243;-72
2023/03/11 04:53:26;;;;;;;0.20;0.20;;;;;;;;;;5006158;28;20245;-72
2023/03/11 04:55:52;;;;;;;0.23;0.23;;;;;;;;;;4996054;28;20308;-71
2023/03/11 04:58:19;;;;;;;0.53;0.53;;;;;;;;;;5005611;28;20222;-72
2023/03/11 05:00:45;;;;;;;0.20;0.20;;;;;;;;;;4996797;28;20239;-71
2023/03/11 05:03:13;;;;;;;0.30;0.30;;;;;;;;;;5005676;28;20268;-72
2023/03/11 05:05:39;;;;;;;0.20;0.20;;;;;;;;;;4996169;28;20238;-72
2023/03/11 05:08:06;;;;;;;0.20;0.20;;;;;;;;;;5005671;28;20202;-72
2023/03/11 05:10:32;;;;;;;0.20;0.20;;;;;;;;;;4996416;28;20427;-72
2023/03/11 05:12:59;;;;;;;0.20;0.20;;;;;;;;;;5004102;28;20238;-72
2023/03/11 05:15:25;;;;;;;0.20;0.20;;;;;;;;;;4996422;28;20395;-71
2023/03/11 05:17:51;;;;;;;0.20;0.20;;;;;;;;;;5005047;28;20258;-72
2023/03/11 05:20:19;;;;;;;0.20;0.20;;;;;;;;;;4996296;28;20444;-71
2023/03/11 05:22:46;;;;;;;0.20;0.20;;;;;;;;;;5005050;28;20261;-72
2023/03/11 05:25:12;;;;;;;0.20;0.20;;;;;;;;;;4996188;28;20523;-71
2023/03/11 05:27:39;;;;;;;0.20;0.20;;;;;;;;;;5004879;28;20264;-73
2023/03/11 05:30:06;;;;;;;0.20;0.20;;;;;;;;;;5006139;28;20239;-73
2023/03/11 05:32:32;;;;;;;0.30;0.30;;;;;;;;;;4994870;28;20270;-73
2023/03/11 05:34:59;;;;;;;0.20;0.20;;;;;;;;;;5006070;28;20274;-72
2023/03/11 05:37:27;;;;;;;0.20;0.20;;;;;;;;;;4994738;28;20237;-72
2023/03/11 05:39:54;;;;;;;0.20;0.20;;;;;;;;;;5005499;28;20282;-72
2023/03/11 05:42:20;;;;;;;0.20;0.20;;;;;;;;;;4994757;28;20313;-72
2023/03/11 05:44:46;;;;;;;0.20;0.20;;;;;;;;;;5005453;28;20208;-72
2023/03/11 05:47:13;;;;;;;0.20;0.20;;;;;;;;;;4994611;28;20317;-72
2023/03/11 05:49:39;;;;;;;0.20;0.20;;;;;;;;;;5005625;28;20395;-72
2023/03/11 05:52:05;;;;;;;0.20;0.20;;;;;;;;;;4994531;28;20350;-72
2023/03/11 05:54:33;;;;;;;0.20;0.20;;;;;;;;;;5005439;28;20233;-72
2023/03/11 05:57:00;;;;;;;0.20;0.20;;;;;;;;;;4994130;28;20305;-72
2023/03/11 05:59:26;;;;;;;0.20;0.20;;;;;;;;;;5005180;28;20235;-73
2023/03/11 06:01:52;;;;;;;0.20;0.20;;;;;;;;;;4994691;28;20286;-73
2023/03/11 06:04:19;;;;;;;0.20;0.20;;;;;;;;;;5005152;28;20517;-74
2023/03/11 06:06:45;;;;;;;0.30;0.30;;;;;;;;;;4994503;28;20285;-73
2023/03/11 06:09:12;;;;;;;0.20;0.20;;;;;;;;;;5004890;28;20206;-73
2023/03/11 06:11:40;;;;;;;0.20;0.20;;;;;;;;;;4994245;28;20254;-73
2023/03/11 06:14:06;;;;;;;0.40;0.40;;;;;;;;;;5004988;28;20453;-74
2023/03/11 06:16:33;;;;;;;0.20;0.20;;;;;;;;;;4994209;28;20306;-73
2023/03/11 06:18:59;;;;;;;0.20;0.20;;;;;;;;;;5004462;28;20279;-73
2023/03/11 06:21:26;;;;;;;0.20;0.20;;;;;;;;;;4994390;28;20249;-71
2023/03/11 06:23:52;;;;;;;0.20;0.20;;;;;;;;;;5004107;28;20214;-72
2023/03/11 06:26:20;;;;;;;0.20;0.20;;;;;;;;;;4994355;28;20318;-71
2023/03/11 06:28:48;;;;;;;0.20;0.20;;;;;;;;;;5004288;28;20209;-72
2023/03/11 06:31:15;;;;;;;0.20;0.20;;;;;;;;;;4994270;28;20258;-72
2023/03/11 06:33:42;;;;;;;0.27;0.27;;;;;;;;;;5004443;28;20274;-72
2023/03/11 06:36:11;;;;;;;5.73;5.30;;;;;;;;;;4994249;28;20326;-71
2023/03/11 06:38:37;;;;;;;0.20;0.20;;;;;;;;;;5003942;28;20230;-70
2023/03/11 06:41:04;;;;;;;0.23;0.23;;;;;;;;;;4993981;28;20301;-72
2023/03/11 06:43:31;;;;;;;0.20;0.20;;;;;;;;;;5003825;28;20214;-73
2023/03/11 06:46:00;;;;;;;0.20;0.20;;;;;;;;;;4993872;28;20261;-72
2023/03/11 06:48:26;;;;;;;0.20;0.20;;;;;;;;;;5004092;28;20236;-72
2023/03/11 06:50:53;;;;;;;0.20;0.20;;;;;;;;;;4993961;28;20256;-72
2023/03/11 06:53:20;;;;;;;0.20;0.20;;;;;;;;;;5003676;28;20274;-73
2023/03/11 06:55:46;;;;;;;0.20;0.20;;;;;;;;;;4994058;28;20566;-73
2023/03/11 06:58:12;;;;;;;0.20;0.20;;;;;;;;;;5003687;28;20661;-73
2023/03/11 07:00:39;;;;;;;0.20;0.20;;;;;;;;;;4994324;28;20513;-72
2023/03/11 07:03:07;;;;;;;0.30;0.30;;;;;;;;;;5003159;28;20251;-73
2023/03/11 07:05:33;;;;;;;0.20;0.20;;;;;;;;;;4994088;28;20242;-72
2023/03/11 07:07:59;;;;;;;0.27;0.27;;;;;;;;;;5003559;28;20209;-73
2023/03/11 07:10:26;;;;;;;0.20;0.20;;;;;;;;;;4994269;28;20206;-67
2023/03/11 07:12:52;;;;;;;0.30;0.30;;;;;;;;;;5003683;28;20200;-70
2023/03/11 07:15:18;;;;;;;0.20;0.20;;;;;;;;;;4994081;28;20239;-69
2023/03/11 07:17:45;;;;;;;0.20;0.20;;;;;;;;;;5003035;28;20226;-70
2023/03/11 07:20:13;;;;;;;0.20;0.20;;;;;;;;;;4994496;28;20239;-70
2023/03/11 07:22:39;;;;;;;0.30;0.30;;;;;;;;;;5003348;28;20442;-70
2023/03/11 07:25:06;;;;;;;0.30;0.30;;;;;;;;;;5003767;28;20214;-70
2023/03/11 07:27:32;;;;;;;0.20;0.20;;;;;;;;;;4976669;28;20224;-70
2023/03/11 07:30:00;;;;;;;0.20;0.20;;;;;;;;;;5003782;28;20242;-70
2023/03/11 07:32:26;;;;;;;0.20;0.20;;;;;;;;;;4993024;28;20522;-70
2023/03/11 07:34:53;;;;;;;0.27;0.27;;;;;;;;;;5003764;28;20238;-70
2023/03/11 07:37:21;;;;;;;0.20;0.20;;;;;;;;;;4997045;28;20314;-70
2023/03/11 07:39:47;;;;;;;0.20;0.20;;;;;;;;;;5007915;28;20210;-70
2023/03/11 07:42:13;;;;;;;0.20;0.20;;;;;;;;;;4996800;28;20258;-70
2023/03/11 07:44:40;;;;;;;0.23;0.23;;;;;;;;;;5007641;28;20214;-70
2023/03/11 07:47:06;;;;;;;0.20;0.20;;;;;;;;;;4996686;28;20247;-70
2023/03/11 07:49:33;;;;;;;0.20;0.20;;;;;;;;;;5007700;28;20274;-70
2023/03/11 07:52:00;;;;;;;0.20;0.20;;;;;;;;;;4996823;28;20251;-70
2023/03/11 07:54:28;;;;;;;0.20;0.20;;;;;;;;;;5007790;28;20279;-71
2023/03/11 07:56:54;;;;;;;0.20;0.20;;;;;;;;;;4996352;28;20311;-70
2023/03/11 07:59:21;;;;;;;0.20;0.20;;;;;;;;;;5007631;28;20248;-70
2023/03/11 08:01:47;;;;;;;0.20;0.20;;;;;;;;;;4996590;28;20244;-71
2023/03/11 08:04:15;;;;;;;0.20;0.20;;;;;;;;;;5007136;28;20219;-71
2023/03/11 08:06:42;;;;;;;0.20;0.20;;;;;;;;;;4996572;28;20271;-71
2023/03/11 08:09:09;;;;;;;0.20;0.20;;;;;;;;;;5006950;28;20343;-70
2023/03/11 08:11:36;;;;;;;0.20;0.20;;;;;;;;;;4996768;28;20463;-70
2023/03/11 08:14:03;;;;;;;0.20;0.20;;;;;;;;;;5006901;28;20248;-71
2023/03/11 08:16:30;;;;;;;0.20;0.20;;;;;;;;;;4996321;28;20459;-71
2023/03/11 08:18:57;;;;;;;0.20;0.20;;;;;;;;;;5006898;28;20488;-70
2023/03/11 08:21:24;;;;;;;0.20;0.20;;;;;;;;;;4996698;28;20303;-71
2023/03/11 08:23:51;;;;;;;0.20;0.20;;;;;;;;;;5006585;28;20209;-71
2023/03/11 08:26:18;;;;;;;0.20;0.20;;;;;;;;;;4996556;28;20315;-71
2023/03/11 08:28:46;;;;;;;0.20;0.20;;;;;;;;;;5006784;28;20392;-71
2023/03/11 08:31:13;;;;;;;0.30;0.30;;;;;;;;;;4996336;28;20276;-71
2023/03/11 08:33:39;;;;;;;0.20;0.20;;;;;;;;;;5006592;28;20434;-71
2023/03/11 08:36:06;;;;;;;0.20;0.20;;;;;;;;;;4996390;28;20307;-71
2023/03/11 08:38:32;;;;;;;0.20;0.20;;;;;;;;;;5006450;28;20267;-71
2023/03/11 08:40:59;;;;;;;0.20;0.20;;;;;;;;;;4996543;28;20307;-72
2023/03/11 08:43:26;;;;;;;0.20;0.20;;;;;;;;;;5006341;28;20283;-71
2023/03/11 08:45:53;;;;;;;0.20;0.20;;;;;;;;;;4996054;28;20511;-71
2023/03/11 08:48:20;;;;;;;0.20;0.20;;;;;;;;;;5005784;28;20224;-71
2023/03/11 08:50:46;;;;;;;0.20;0.20;;;;;;;;;;4996648;28;20325;-71
2023/03/11 08:53:12;;;;;;;0.20;0.20;;;;;;;;;;5006154;28;20837;-71
2023/03/11 08:55:39;;;;;;;0.20;0.20;;;;;;;;;;4996156;28;20315;-71
2023/03/11 08:58:06;;;;;;;0.20;0.20;;;;;;;;;;5005524;28;20232;-71
2023/03/11 09:00:32;;;;;;;0.20;0.20;;;;;;;;;;4996171;28;20264;-71
2023/03/11 09:03:00;;;;;;;0.20;0.20;;;;;;;;;;5005732;28;20428;-71
2023/03/11 09:05:26;;;;;;;0.20;0.20;;;;;;;;;;4995978;28;20232;-71
2023/03/11 09:07:53;;;;;;;0.20;0.20;;;;;;;;;;5005607;28;20433;-71
2023/03/11 09:10:19;;;;;;;0.20;0.20;;;;;;;;;;4996142;28;20280;-70
2023/03/11 09:12:45;;;;;;;0.20;0.20;;;;;;;;;;5005165;28;20264;-71
2023/03/11 09:15:12;;;;;;;0.20;0.20;;;;;;;;;;4996371;28;20280;-70
2023/03/11 09:17:38;;;;;;;0.20;0.20;;;;;;;;;;5004981;28;20220;-71
2023/03/11 09:20:07;;;;;;;0.20;0.20;;;;;;;;;;5006269;28;20239;-71
2023/03/11 09:22:33;;;;;;;0.20;0.20;;;;;;;;;;4978742;28;20288;-72
2023/03/11 09:24:59;;;;;;;0.20;0.20;;;;;;;;;;5006054;28;20263;-71
2023/03/11 09:27:26;;;;;;;0.20;0.20;;;;;;;;;;4995020;28;20245;-72
2023/03/11 09:29:52;;;;;;;0.20;0.20;;;;;;;;;;5006191;28;20240;-72
2023/03/11 09:32:19;;;;;;;0.20;0.20;;;;;;;;;;4994941;28;20271;-72
2023/03/11 09:34:45;;;;;;;0.20;0.20;;;;;;;;;;5006053;28;20615;-72
2023/03/11 09:37:13;;;;;;;0.20;0.20;;;;;;;;;;4994889;28;20524;-72
2023/03/11 09:39:39;;;;;;;0.20;0.20;;;;;;;;;;5005713;28;20233;-72
2023/03/11 09:42:12;;;;;;;0.20;0.20;;;;;;;;;;4994761;28;20263;-72
2023/03/11 09:44:42;;;;;;;0.20;0.20;;;;;;;;;;5005626;28;20216;-72
2023/03/11 09:47:23;;;;;;;0.10;0.10;;;;;;;;;;4994532;28;20247;-71
2023/03/11 09:49:59;;;;;;;0.10;0.10;;;;;;;;;;5005861;28;20208;-71
2023/03/11 09:52:30;;;;;;;0.20;0.20;;;;;;;;;;4994533;28;20260;-71
2023/03/11 09:54:57;;;;;;;0.20;0.20;;;;;;;;;;5005413;28;20233;-71
2023/03/11 09:57:25;;;;;;;0.10;0.10;;;;;;;;;;4994293;28;20261;-72
2023/03/11 09:59:51;;;;;;;0.20;0.20;;;;;;;;;;5004834;28;20424;-72
2023/03/11 10:02:18;;;;;;;0.20;0.20;;;;;;;;;;4994210;28;20273;-71
2023/03/11 10:04:50;;;;;;;0.20;0.20;;;;;;;;;;5005434;28;20244;-72
2023/03/11 10:07:20;;;;;;;0.10;0.10;;;;;;;;;;4994243;28;20252;-72
2023/03/11 10:09:51;;;;;;;0.10;0.10;;;;;;;;;;5005154;28;20242;-72
2023/03/11 10:12:25;;;;;;;0.20;0.20;;;;;;;;;;4994117;28;20305;-72
2023/03/11 10:14:59;;;;;;;0.20;0.20;;;;;;;;;;5005311;28;20206;-71
2023/03/11 10:17:36;;;;;;;0.10;0.10;;;;;;;;;;4993980;28;20308;-72
2023/03/11 10:20:05;;;;;;;0.10;0.10;;;;;;;;;;5004990;28;20279;-72
2023/03/11 10:22:35;;;;;;;0.10;0.10;;;;;;;;;;4993851;28;20304;-72
2023/03/11 10:25:09;;;;;;;0.17;0.17;;;;;;;;;;5004987;28;20260;-71
2023/03/11 10:27:37;;;;;;;0.10;0.10;;;;;;;;;;4977635;28;20414;-71
2023/03/11 10:30:06;;;;;;;0.10;0.10;;;;;;;;;;5004954;28;20206;-71
2023/03/11 10:32:36;;;;;;;0.20;0.20;;;;;;;;;;4977658;28;20257;-72
2023/03/11 10:35:06;;;;;;;0.10;0.10;;;;;;;;;;5004634;28;20252;-72
2023/03/11 10:37:35;;;;;;;0.10;0.10;;;;;;;;;;4993636;28;20485;-72
2023/03/11 10:40:04;;;;;;;0.10;0.10;;;;;;;;;;5004662;28;20253;-72
2023/03/11 10:42:32;;;;;;;0.43;0.43;;;;;;;;;;4993712;28;20633;-72
2023/03/11 10:44:59;;;;;;;0.10;0.10;;;;;;;;;;5004537;28;20216;-72
2023/03/11 10:47:26;;;;;;;0.13;0.13;;;;;;;;;;4993418;28;20286;-71
2023/03/11 10:49:52;;;;;;;0.20;0.20;;;;;;;;;;5004731;28;20414;-71
2023/03/11 10:52:19;;;;;;;0.20;0.20;;;;;;;;;;4993414;28;20242;-72
2023/03/11 10:54:46;;;;;;;0.17;0.17;;;;;;;;;;5004175;28;20280;-71
2023/03/11 10:57:21;;;;;;;0.20;0.20;;;;;;;;;;4993350;28;20253;-71
2023/03/11 10:59:50;;;;;;;0.17;0.17;;;;;;;;;;5004181;28;20292;-72
2023/03/11 11:02:26;;;;;;;0.10;0.10;;;;;;;;;;4993306;28;20268;-71
2023/03/11 11:05:04;;;;;;;0.20;0.20;;;;;;;;;;5004438;28;20217;-73
2023/03/11 11:07:31;;;;;;;0.20;0.20;;;;;;;;;;4993183;28;20308;-72
2023/03/11 11:10:13;;;;;;;0.10;0.10;;;;;;;;;;5004513;28;20388;-72
2023/03/11 11:12:50;;;;;;;0.20;0.20;;;;;;;;;;4976848;28;20210;-71
2023/03/11 11:15:22;;;;;;;0.20;0.20;;;;;;;;;;4994249;28;20233;-70
2023/03/11 11:17:49;;;;;;;0.20;0.20;;;;;;;;;;5003104;28;20269;-71
2023/03/11 11:20:17;;;;;;;0.20;0.20;;;;;;;;;;4994163;28;20233;-70
2023/03/11 11:22:49;;;;;;;0.20;0.20;;;;;;;;;;5002927;28;20210;-71
2023/03/11 11:25:26;;;;;;;0.20;0.20;;;;;;;;;;4994131;28;20210;-65
2023/03/11 11:27:56;;;;;;;0.20;0.20;;;;;;;;;;5003015;28;20226;-65
2023/03/11 11:30:24;;;;;;;0.10;0.10;;;;;;;;;;4994095;28;20210;-65
2023/03/11 11:32:52;;;;;;;0.20;0.20;;;;;;;;;;5003061;28;20194;-65
2023/03/11 11:35:19;;;;;;;0.20;0.20;;;;;;;;;;4994044;28;20209;-65
2023/03/11 11:37:47;;;;;;;0.20;0.20;;;;;;;;;;5002989;28;20222;-65
2023/03/11 11:40:21;;;;;;;0.20;0.20;;;;;;;;;;4993965;28;20482;-66
2023/03/11 11:42:50;;;;;;;0.20;0.20;;;;;;;;;;5002892;28;20262;-65
2023/03/11 11:45:21;;;;;;;0.20;0.20;;;;;;;;;;4994162;28;20240;-66
2023/03/11 11:47:51;;;;;;;0.20;0.20;;;;;;;;;;5002803;28;20261;-66
2023/03/11 11:50:20;;;;;;;0.10;0.10;;;;;;;;;;4993827;28;20209;-66
2023/03/11 11:52:49;;;;;;;0.20;0.20;;;;;;;;;;5002773;28;20369;-71
2023/03/11 11:55:19;;;;;;;0.20;0.20;;;;;;;;;;4993788;28;20418;-72
2023/03/11 11:57:45;;;;;;;0.20;0.20;;;;;;;;;;5002939;28;20238;-67
2023/03/11 12:00:19;;;;;;;0.20;0.20;;;;;;;;;;4993926;28;20257;-72
2023/03/11 12:02:51;;;;;;;0.10;0.10;;;;;;;;;;5002940;28;20193;-67
2023/03/11 12:05:23;;;;;;;0.20;0.20;;;;;;;;;;4993965;28;20281;-68
2023/03/11 12:08:05;;;;;;;0.20;0.20;;;;;;;;;;5002950;28;20261;-67
2023/03/11 12:10:33;;;;;;;0.20;0.20;;;;;;;;;;4993851;28;20444;-67
2023/03/11 12:13:11;;;;;;;0.20;0.20;;;;;;;;;;5002682;28;20195;-68
2023/03/11 12:15:39;;;;;;;0.20;0.20;;;;;;;;;;4993727;28;20242;-67
2023/03/11 12:18:09;;;;;;;0.13;0.13;;;;;;;;;;5002622;28;20207;-67
2023/03/11 12:20:41;;;;;;;0.43;0.43;;;;;;;;;;4993630;28;20305;-68
2023/03/11 12:23:18;;;;;;;17.60;16.10;;;;;;;;;;5006318;28;20482;-67
2023/03/11 12:26:03;;;;;;;0.20;0.20;;;;;;;;;;4997070;28;20253;-68
2023/03/11 12:28:35;;;;;;;0.13;0.13;;;;;;;;;;5006250;28;20249;-68
2023/03/11 12:31:03;;;;;;;0.20;0.20;;;;;;;;;;4996790;28;20314;-67
2023/03/11 12:33:32;;;;;;;0.10;0.10;;;;;;;;;;5006630;28;20532;-67
2023/03/11 12:36:01;;;;;;;0.10;0.10;;;;;;;;;;4996675;28;20261;-68
2023/03/11 12:38:31;;;;;;;0.20;0.20;;;;;;;;;;5006120;28;20247;-67
2023/03/11 12:41:03;;;;;;;0.17;0.17;;;;;;;;;;4996599;28;20246;-70
2023/03/11 12:43:48;;;;;;;0.20;0.20;;;;;;;;;;5006128;28;20230;-67
2023/03/11 12:46:16;;;;;;;0.10;0.10;;;;;;;;;;4996305;28;20502;-67
2023/03/11 12:48:43;;;;;;;0.10;0.10;;;;;;;;;;5006137;28;20209;-67
2023/03/11 12:51:24;;;;;;;0.20;0.20;;;;;;;;;;4996421;28;20305;-67
2023/03/11 12:53:52;;;;;;;0.20;0.20;;;;;;;;;;5005240;28;20371;-67
2023/03/11 12:56:29;;;;;;;0.10;0.10;;;;;;;;;;4995632;28;20264;-68
2023/03/11 12:59:10;;;;;;;0.20;0.20;;;;;;;;;;5005886;28;20214;-67
2023/03/11 13:01:44;;;;;;;0.10;0.10;;;;;;;;;;4995690;28;20313;-67
2023/03/11 13:04:22;;;;;;;0.10;0.10;;;;;;;;;;5006401;28;20237;-67
2023/03/11 13:06:58;;;;;;;0.10;0.10;;;;;;;;;;4995546;28;20492;-67
2023/03/11 13:09:26;;;;;;;0.20;0.20;;;;;;;;;;5006596;28;20241;-67
2023/03/11 13:11:52;;;;;;;0.20;0.20;;;;;;;;;;4995399;28;20254;-70
2023/03/11 13:14:27;;;;;;;0.10;0.10;;;;;;;;;;5006053;28;20248;-70
2023/03/11 13:16:54;;;;;;;0.20;0.20;;;;;;;;;;4995169;28;20293;-70
2023/03/11 13:19:32;;;;;;;0.10;0.10;;;;;;;;;;5005792;28;20301;-70
2023/03/11 13:22:00;;;;;;;0.10;0.10;;;;;;;;;;4995149;28;20641;-69
2023/03/11 13:24:47;;;;;;;0.20;0.20;;;;;;;;;;5006245;28;20242;-70
2023/03/11 13:27:20;;;;;;;0.10;0.10;;;;;;;;;;4994930;28;20314;-70
2023/03/11 13:29:52;;;;;;;0.10;0.10;;;;;;;;;;5005862;28;20241;-71
2023/03/11 13:32:33;;;;;;;0.20;0.20;;;;;;;;;;4994611;28;20242;-70
2023/03/11 13:35:13;;;;;;;0.20;0.20;;;;;;;;;;4989213;28;20480;-69
2023/03/11 13:37:44;;;;;;;0.20;0.20;;;;;;;;;;4978573;28;20213;-70
2023/03/11 13:40:17;;;;;;;0.10;0.10;;;;;;;;;;4995571;28;20230;-71
2023/03/11 13:42:45;;;;;;;0.10;0.10;;;;;;;;;;5004903;28;20238;-70
2023/03/11 13:45:17;;;;;;;0.13;0.13;;;;;;;;;;4995893;28;20273;-70
2023/03/11 13:47:45;;;;;;;0.10;0.10;;;;;;;;;;5004810;28;20236;-70
2023/03/11 13:50:15;;;;;;;0.20;0.20;;;;;;;;;;4995731;28;20233;-71
2023/03/11 13:52:44;;;;;;;0.20;0.20;;;;;;;;;;5004560;28;20202;-70
2023/03/11 13:55:18;;;;;;;0.20;0.20;;;;;;;;;;4995319;28;20237;-70
2023/03/11 13:57:49;;;;;;;0.20;0.20;;;;;;;;;;5004275;28;20237;-70
2023/03/11 14:00:17;;;;;;;0.17;0.17;;;;;;;;;;4995529;28;20272;-72
2023/03/11 14:02:45;;;;;;;0.17;0.17;;;;;;;;;;5004162;28;20194;-70
2023/03/11 14:05:15;;;;;;;0.10;0.10;;;;;;;;;;4995512;28;20237;-70
2023/03/11 14:07:41;;;;;;;0.17;0.17;;;;;;;;;;5004470;28;20194;-69
2023/03/11 14:10:20;;;;;;;0.10;0.10;;;;;;;;;;5001625;28;20277;-71
2023/03/11 14:12:47;;;;;;;0.20;0.20;;;;;;;;;;5005309;28;20257;-71
2023/03/11 14:15:15;;;;;;;0.10;0.10;;;;;;;;;;4995394;28;20217;-70
2023/03/11 14:17:42;;;;;;;0.30;0.30;;;;;;;;;;5004200;28;20265;-70
2023/03/11 14:20:13;;;;;;;0.13;0.13;;;;;;;;;;4999804;28;20300;-70
2023/03/11 14:22:40;;;;;;;0.10;0.10;;;;;;;;;;5004165;28;20281;-69
2023/03/11 14:25:08;;;;;;;0.10;0.10;;;;;;;;;;5005148;28;20521;-70
2023/03/11 14:27:37;;;;;;;0.17;0.17;;;;;;;;;;4977468;28;20215;-69
2023/03/11 14:30:04;;;;;;;0.10;0.10;;;;;;;;;;5004947;28;20216;-68
2023/03/11 14:32:32;;;;;;;0.10;0.10;;;;;;;;;;4994032;28;20313;-69
2023/03/11 14:34:58;;;;;;;0.20;0.20;;;;;;;;;;5005010;28;20432;-71
2023/03/11 14:37:26;;;;;;;0.10;0.10;;;;;;;;;;4993662;28;20445;-71
2023/03/11 14:39:53;;;;;;;0.13;0.13;;;;;;;;;;5004664;28;20299;-71
2023/03/11 14:42:22;;;;;;;0.10;0.10;;;;;;;;;;4993661;28;20244;-70
2023/03/11 14:44:52;;;;;;;0.10;0.10;;;;;;;;;;5004407;28;20213;-71
2023/03/11 14:47:20;;;;;;;0.10;0.10;;;;;;;;;;4993512;28;20238;-71
2023/03/11 14:49:49;;;;;;;0.10;0.10;;;;;;;;;;5004564;28;20240;-70